Time;durP1;ratioP1;P1;durP2;ratioP2;P2;SDS_P1;SDS_P2;PMS_P1;PMS_P2;Temp;Humidity;BMP_temperature;BMP_pressure;BME280_temperature;BME280_humidity;BME280_pressure;Samples;Min_cycle;Max_cycle;Signal;HPM_P1;HPM_P2
2020/12/07 00:01:06;;;;;;;10.10;8.63;;;;;;;18.68;36.04;94184.56;5086150;28;20063;-59
2020/12/07 00:03:34;;;;;;;10.82;8.90;;;;;;;18.92;35.57;94196.88;5078155;28;20063;-59
2020/12/07 00:06:01;;;;;;;10.05;8.68;;;;;;;19.13;35.30;94186.03;5078298;28;20051;-57
2020/12/07 00:08:28;;;;;;;11.10;9.13;;;;;;;18.80;35.82;94189.81;5085427;28;20048;-59
2020/12/07 00:10:55;;;;;;;9.75;8.55;;;;;;;18.52;36.39;94183.78;5078061;28;20044;-58
2020/12/07 00:13:22;;;;;;;10.32;8.55;;;;;;;18.94;35.34;94179.53;5089065;28;20047;-58
2020/12/07 00:15:49;;;;;;;12.02;8.93;;;;;;;18.63;36.14;94171.59;5118542;28;20043;-58
2020/12/07 00:18:16;;;;;;;9.80;8.80;;;;;;;18.83;35.69;94167.94;5118012;28;20043;-58
2020/12/07 00:20:44;;;;;;;9.43;7.53;;;;;;;18.65;35.97;94167.50;5118497;28;20043;-57
2020/12/07 00:23:11;;;;;;;9.55;8.18;;;;;;;18.65;35.95;94170.16;5079465;28;20071;-56
2020/12/07 00:25:39;;;;;;;8.73;7.82;;;;;;;18.73;35.62;94168.44;5078653;28;20431;-55
2020/12/07 00:28:06;;;;;;;9.18;8.00;;;;;;;18.87;35.44;94158.19;5111773;28;20051;-56
2020/12/07 00:30:33;;;;;;;8.90;7.60;;;;;;;19.50;34.56;94163.38;5118164;28;20051;-57
2020/12/07 00:33:00;;;;;;;7.65;6.88;;;;;;;19.01;35.16;94158.53;5117812;28;20356;-59
2020/12/07 00:35:28;;;;;;;8.40;7.13;;;;;;;19.11;34.92;94165.19;5118131;28;20063;-57
2020/12/07 00:37:55;;;;;;;8.40;7.40;;;;;;;18.75;35.66;94151.13;5117882;28;20047;-59
2020/12/07 00:40:22;;;;;;;8.30;6.78;;;;;;;18.84;35.46;94145.63;5118034;28;20047;-55
2020/12/07 00:42:49;;;;;;;8.38;7.40;;;;;;;18.64;36.23;94144.00;5117524;28;20351;-56
2020/12/07 00:45:16;;;;;;;8.15;6.97;;;;;;;18.94;35.54;94142.47;5117802;28;20050;-57
2020/12/07 00:47:47;;;;;;;9.40;7.43;;;;;;;18.66;36.03;94147.09;5091824;28;20051;-57
2020/12/07 00:50:14;;;;;;;8.43;6.93;;;;;;;18.32;36.69;94136.03;5097600;28;20390;-57
2020/12/07 00:52:42;;;;;;;7.13;6.40;;;;;;;18.73;35.66;94131.38;5079094;28;20039;-56
2020/12/07 00:55:09;;;;;;;7.55;6.70;;;;;;;18.56;36.00;94123.75;5097110;28;20047;-57
2020/12/07 00:57:36;;;;;;;7.57;6.50;;;;;;;19.13;34.84;94111.84;5079345;28;20356;-59
2020/12/07 01:00:07;;;;;;;8.23;7.38;;;;;;;19.32;34.69;94114.53;5097259;28;20060;-59
2020/12/07 01:02:37;;;;;;;7.95;6.60;;;;;;;19.20;34.78;94112.00;5099831;28;20120;-57
2020/12/07 01:05:05;;;;;;;7.43;6.70;;;;;;;18.67;35.79;94127.44;5099764;28;20048;-59
2020/12/07 01:07:35;;;;;;;7.80;6.80;;;;;;;19.05;34.97;94117.00;5093787;28;20051;-57
2020/12/07 01:10:04;;;;;;;8.43;6.75;;;;;;;19.22;34.78;94128.31;5079521;28;20047;-57
2020/12/07 01:12:32;;;;;;;7.85;6.90;;;;;;;19.08;35.26;94120.84;5079302;28;20370;-60
2020/12/07 01:15:00;;;;;;;8.90;6.93;;;;;;;18.98;35.08;94122.13;5098960;28;20058;-55
2020/12/07 01:17:31;;;;;;;8.18;6.97;;;;;;;19.06;34.83;94110.59;5095029;28;20438;-58
2020/12/07 01:20:04;;;;;;;7.82;6.93;;;;;;;18.83;35.54;94112.31;5079207;28;20077;-58
2020/12/07 01:22:34;;;;;;;8.27;6.95;;;;;;;18.84;35.47;94121.81;5099121;28;20048;-57
2020/12/07 01:25:02;;;;;;;8.35;7.25;;;;;;;18.53;35.96;94111.97;5099357;28;20058;-58
2020/12/07 01:27:36;;;;;;;6.65;5.03;;;;;;;20.07;33.15;94111.50;5099082;28;20054;-61
2020/12/07 01:30:05;;;;;;;7.90;6.40;;;;;;;18.91;35.23;94095.47;5099268;28;20358;-59
2020/12/07 01:32:33;;;;;;;7.03;6.30;;;;;;;19.07;34.98;94109.47;5099254;28;20052;-58
2020/12/07 01:35:00;;;;;;;7.97;6.57;;;;;;;18.75;35.52;94103.47;5117066;28;20043;-56
2020/12/07 01:37:27;;;;;;;8.32;6.70;;;;;;;18.76;35.43;94099.69;5116615;28;20039;-58
2020/12/07 01:39:54;;;;;;;7.55;6.68;;;;;;;19.13;34.92;94102.00;5099128;28;20044;-60
2020/12/07 01:42:21;;;;;;;7.65;6.60;;;;;;;19.05;35.04;94114.34;5117029;28;20051;-56
2020/12/07 01:44:51;;;;;;;8.38;6.30;;;;;;;18.77;34.95;94103.09;5097708;28;20043;-60
2020/12/07 01:47:24;;;;;;;6.60;5.65;;;;;;;18.89;35.16;94099.59;5079776;28;20070;-58
2020/12/07 01:49:55;;;;;;;6.82;6.13;;;;;;;19.25;34.34;94095.81;5087253;28;20040;-56
2020/12/07 01:52:25;;;;;;;7.07;6.10;;;;;;;18.40;35.90;94086.69;5078912;28;20051;-58
2020/12/07 01:54:53;;;;;;;7.15;5.93;;;;;;;18.68;35.58;94081.31;5078715;28;20048;-57
2020/12/07 01:57:21;;;;;;;6.22;5.50;;;;;;;18.98;34.42;94084.25;5078543;28;20044;-56
2020/12/07 01:59:53;;;;;;;6.70;5.15;;;;;;;19.47;33.81;94049.31;5075828;28;20055;-60
2020/12/07 02:02:22;;;;;;;7.85;5.53;;;;;;;19.64;33.44;94091.34;5076279;28;20063;-61
2020/12/07 02:04:50;;;;;;;6.22;5.20;;;;;;;19.68;33.18;94061.13;5075743;28;20052;-54
2020/12/07 02:07:18;;;;;;;6.03;4.95;;;;;;;19.56;33.02;94071.13;5057805;28;20040;-56
2020/12/07 02:09:48;;;;;;;5.57;4.95;;;;;;;19.39;33.40;94074.91;5075848;28;20048;-58
2020/12/07 02:12:15;;;;;;;5.63;4.72;;;;;;;18.44;35.30;94075.06;5058126;28;20059;-55
2020/12/07 02:14:42;;;;;;;4.90;4.35;;;;;;;18.79;34.81;94066.47;5085365;28;20047;-55
2020/12/07 02:17:09;;;;;;;5.10;4.60;;;;;;;19.07;34.07;94069.72;5078173;28;20048;-56
2020/12/07 02:19:36;;;;;;;6.60;4.80;;;;;;;19.19;33.86;94083.97;5093237;28;20052;-58
2020/12/07 02:22:04;;;;;;;5.60;5.00;;;;;;;18.86;34.47;94077.22;5078028;28;20055;-60
2020/12/07 02:25:09;;;;;;;6.43;4.95;;;;;;;19.11;34.30;94083.03;5077138;28;20059;-55
2020/12/07 02:27:37;;;;;;;5.05;4.55;;;;;;;19.08;34.24;94079.22;5074621;28;20044;-57
2020/12/07 02:30:04;;;;;;;5.05;4.50;;;;;;;19.08;34.08;94052.72;5060767;28;20051;-58
2020/12/07 02:32:33;;;;;;;5.85;4.72;;;;;;;19.22;33.87;94036.34;5077825;28;20043;-58
2020/12/07 02:35:10;;;;;;;6.00;4.70;;;;;;;20.77;31.67;94042.09;5077774;28;20059;-55
2020/12/07 02:37:46;;;;;;;4.90;4.22;;;;;;;21.09;30.74;94052.44;5058936;28;20059;-55
2020/12/07 02:40:14;;;;;;;5.88;5.28;;;;;;;20.54;31.43;94039.47;5054068;28;20048;-59
2020/12/07 02:42:42;;;;;;;6.78;5.32;;;;;;;19.87;32.62;94048.97;5037549;28;20041;-61
2020/12/07 02:45:14;;;;;;;5.60;5.03;;;;;;;19.32;33.51;94061.53;5053846;28;20060;-58
2020/12/07 02:47:46;;;;;;;8.15;5.68;;;;;;;18.92;34.73;94077.69;5041748;28;20048;-59
2020/12/07 02:50:14;;;;;;;6.97;5.93;;;;;;;19.36;33.78;94052.53;5053927;28;20048;-57
2020/12/07 02:52:42;;;;;;;6.03;5.43;;;;;;;18.97;34.61;94059.66;5037657;28;20052;-57
2020/12/07 02:55:11;;;;;;;6.53;5.82;;;;;;;18.83;34.90;94062.00;5054971;28;20056;-54
2020/12/07 02:57:39;;;;;;;5.97;5.22;;;;;;;19.87;33.12;94064.88;5040908;28;20055;-56
2020/12/07 03:00:09;;;;;;;5.68;4.97;;;;;;;19.41;33.56;94088.59;5057291;28;20060;-56
2020/12/07 03:02:38;;;;;;;6.20;5.30;;;;;;;19.17;34.22;94084.31;5051797;28;20052;-60
2020/12/07 03:05:10;;;;;;;8.07;5.40;;;;;;;19.75;33.29;94088.88;5037456;28;20052;-58
2020/12/07 03:07:38;;;;;;;5.70;5.00;;;;;;;19.13;34.07;94054.31;5056643;28;20051;-58
2020/12/07 03:10:06;;;;;;;5.93;4.75;;;;;;;19.84;32.46;94065.59;5057447;28;20340;-56
2020/12/07 03:12:34;;;;;;;5.78;5.13;;;;;;;19.17;34.05;94071.06;5057019;28;20379;-59
2020/12/07 03:15:04;;;;;;;5.90;5.30;;;;;;;19.61;33.17;94071.59;5055647;28;20044;-56
2020/12/07 03:17:34;;;;;;;5.72;5.13;;;;;;;18.96;34.60;94066.06;5038339;28;20056;-56
2020/12/07 03:20:01;;;;;;;6.25;5.45;;;;;;;19.40;33.91;94068.50;5056020;28;20045;-59
2020/12/07 03:22:31;;;;;;;5.72;5.13;;;;;;;19.36;33.88;94072.97;5037527;28;20053;-60
2020/12/07 03:25:00;;;;;;;5.82;5.25;;;;;;;19.00;34.43;94060.88;5037072;28;20049;-56
2020/12/07 03:27:27;;;;;;;7.47;6.40;;;;;;;18.87;34.62;94084.03;5037482;28;20451;-59
2020/12/07 03:29:55;;;;;;;5.18;4.68;;;;;;;19.31;33.64;94060.75;5050898;28;20053;-59
2020/12/07 03:32:25;;;;;;;5.90;5.28;;;;;;;19.22;33.92;94067.34;5037248;28;20053;-60
2020/12/07 03:34:52;;;;;;;6.78;5.75;;;;;;;19.08;34.34;94073.91;5054594;28;20052;-58
2020/12/07 03:37:19;;;;;;;7.50;5.65;;;;;;;19.56;33.24;94082.50;5037248;28;20052;-61
2020/12/07 03:39:54;;;;;;;5.97;5.28;;;;;;;19.25;34.13;94069.31;5041074;28;20336;-59
2020/12/07 03:42:23;;;;;;;6.38;5.18;;;;;;;19.04;34.14;94067.78;5070248;28;20045;-56
2020/12/07 03:44:51;;;;;;;6.70;5.78;;;;;;;18.82;34.59;94065.78;5057973;28;20047;-56
2020/12/07 03:47:21;;;;;;;6.45;5.75;;;;;;;19.00;34.10;94060.88;5060935;28;20056;-55
2020/12/07 03:49:48;;;;;;;6.60;5.32;;;;;;;18.63;34.94;94060.41;5073508;28;20048;-55
2020/12/07 03:52:17;;;;;;;6.43;5.57;;;;;;;20.03;32.34;94057.56;5073770;28;20055;-55
2020/12/07 03:54:45;;;;;;;7.00;5.38;;;;;;;19.29;33.81;94072.81;5056535;28;20482;-58
2020/12/07 03:57:13;;;;;;;5.70;5.00;;;;;;;20.18;31.81;94067.31;5074785;28;20078;-59
2020/12/07 03:59:42;;;;;;;5.18;4.53;;;;;;;19.36;33.17;94046.47;5057122;28;20048;-56
2020/12/07 04:02:09;;;;;;;5.65;4.85;;;;;;;18.87;34.18;94048.84;5077339;28;20056;-59
2020/12/07 04:04:46;;;;;;;5.95;4.93;;;;;;;19.21;33.79;94063.94;5076746;28;20044;-62
2020/12/07 04:07:13;;;;;;;6.18;4.90;;;;;;;19.40;33.59;94053.38;5094815;28;20048;-57
2020/12/07 04:09:40;;;;;;;5.32;4.80;;;;;;;19.76;32.90;94063.91;5079997;28;20109;-59
2020/12/07 04:12:07;;;;;;;5.47;4.93;;;;;;;19.71;32.65;94060.41;5098451;28;20048;-57
2020/12/07 04:14:35;;;;;;;6.72;5.40;;;;;;;19.61;33.40;94047.75;5094719;28;20047;-57
2020/12/07 04:17:02;;;;;;;6.05;5.10;;;;;;;19.55;33.21;94049.16;5118779;28;20046;-55
2020/12/07 04:19:29;;;;;;;6.05;4.85;;;;;;;19.79;33.16;94073.84;5102277;28;20074;-55
2020/12/07 04:21:56;;;;;;;5.40;4.80;;;;;;;18.91;34.38;94066.34;5089918;28;20055;-56
2020/12/07 04:24:23;;;;;;;5.30;4.75;;;;;;;20.06;32.51;94062.19;5097963;28;20047;-56
2020/12/07 04:26:50;;;;;;;5.30;4.78;;;;;;;19.51;33.33;94058.88;5097657;28;20062;-56
2020/12/07 04:29:17;;;;;;;5.47;4.82;;;;;;;20.20;32.22;94057.13;5097461;28;20043;-55
2020/12/07 04:31:44;;;;;;;5.43;4.93;;;;;;;19.53;33.34;94055.88;5097935;28;20051;-61
2020/12/07 04:34:11;;;;;;;5.82;4.95;;;;;;;19.62;33.16;94048.50;5097769;28;20051;-56
2020/12/07 04:36:38;;;;;;;7.75;5.57;;;;;;;19.09;33.98;94046.31;5097685;28;20051;-57
2020/12/07 04:39:05;;;;;;;6.10;5.45;;;;;;;19.82;32.84;94052.69;5097434;28;20044;-59
2020/12/07 04:41:32;;;;;;;6.97;6.00;;;;;;;19.02;34.51;94058.63;5097828;28;20044;-57
2020/12/07 04:43:59;;;;;;;7.97;6.30;;;;;;;20.25;32.23;94056.81;5101408;28;20044;-58
2020/12/07 04:46:27;;;;;;;7.13;6.10;;;;;;;20.54;31.74;94054.66;5108628;28;20123;-55
2020/12/07 04:48:57;;;;;;;7.82;6.75;;;;;;;19.34;33.80;94054.00;5068796;28;20044;-55
2020/12/07 04:51:24;;;;;;;7.68;6.82;;;;;;;19.89;32.93;94052.81;5059367;28;20051;-57
2020/12/07 04:53:52;;;;;;;7.75;6.95;;;;;;;18.83;34.80;94074.47;5076775;28;20051;-58
2020/12/07 04:56:19;;;;;;;7.63;6.45;;;;;;;20.02;32.92;94071.97;5092809;28;20067;-58
2020/12/07 04:58:46;;;;;;;7.15;6.45;;;;;;;19.60;33.15;94070.06;5085008;28;20048;-58
2020/12/07 05:01:13;;;;;;;8.20;7.03;;;;;;;19.38;33.57;94054.84;5061624;28;20052;-59
2020/12/07 05:03:40;;;;;;;7.47;6.68;;;;;;;19.35;33.72;94074.09;5076928;28;20071;-56
2020/12/07 05:06:13;;;;;;;7.78;6.45;;;;;;;19.64;33.09;94057.66;5077057;28;20044;-57
2020/12/07 05:08:40;;;;;;;7.60;6.80;;;;;;;18.74;34.87;94070.16;5083403;28;20039;-55
2020/12/07 05:11:07;;;;;;;8.10;6.97;;;;;;;19.44;33.66;94052.66;5097198;28;20454;-59
2020/12/07 05:13:43;;;;;;;8.48;7.18;;;;;;;18.94;34.33;94051.63;5097286;28;20047;-55
2020/12/07 05:16:11;;;;;;;8.02;7.22;;;;;;;18.76;34.72;94064.50;5117680;28;20051;-57
2020/12/07 05:18:40;;;;;;;7.93;7.05;;;;;;;18.78;34.94;94064.94;5110792;28;20048;-56
2020/12/07 05:21:07;;;;;;;9.27;7.50;;;;;;;18.74;35.24;94061.44;5079489;28;20074;-58
2020/12/07 05:23:36;;;;;;;8.02;6.90;;;;;;;18.79;35.17;94067.22;5078956;28;20044;-58
2020/12/07 05:26:03;;;;;;;8.18;6.20;;;;;;;19.08;34.34;94067.84;5097017;28;20051;-56
2020/12/07 05:28:47;;;;;;;8.95;7.40;;;;;;;18.60;35.49;94085.66;5090583;28;20060;-56
2020/12/07 05:31:19;;;;;;;6.18;5.53;;;;;;;20.09;32.43;94064.16;5096964;28;20518;-56
2020/12/07 05:33:47;;;;;;;8.27;6.60;;;;;;;19.12;34.12;94062.63;5097018;28;20044;-56
2020/12/07 05:36:15;;;;;;;7.25;6.10;;;;;;;19.01;34.45;94079.06;5093355;28;20451;-56
2020/12/07 05:38:43;;;;;;;6.88;6.18;;;;;;;19.16;33.92;94053.63;5091112;28;20040;-56
2020/12/07 05:41:11;;;;;;;7.50;6.05;;;;;;;18.83;34.59;94062.00;5101558;28;20047;-57
2020/12/07 05:43:39;;;;;;;6.43;5.70;;;;;;;19.70;33.32;94050.16;5097948;28;20055;-60
2020/12/07 05:46:06;;;;;;;6.72;6.03;;;;;;;18.62;34.99;94080.03;5095837;28;20372;-60
2020/12/07 05:48:35;;;;;;;5.88;5.28;;;;;;;19.30;33.92;94047.88;5095325;28;20047;-56
2020/12/07 05:51:07;;;;;;;7.18;6.10;;;;;;;18.58;35.06;94050.81;5095031;28;20051;-57
2020/12/07 05:53:37;;;;;;;7.13;6.13;;;;;;;19.40;33.59;94034.81;5096505;28;20058;-57
2020/12/07 05:56:06;;;;;;;7.38;6.47;;;;;;;19.26;33.74;94053.09;5091795;28;20052;-59
2020/12/07 05:59:02;;;;;;;7.10;6.40;;;;;;;19.36;33.49;94041.94;5078179;28;20051;-56
2020/12/07 06:01:30;;;;;;;7.75;6.60;;;;;;;18.97;34.01;94043.75;5060479;28;20086;-60
2020/12/07 06:03:58;;;;;;;7.20;6.45;;;;;;;19.30;33.30;94074.38;5096192;28;20439;-59
2020/12/07 06:06:32;;;;;;;9.05;6.30;;;;;;;19.24;33.46;94055.28;5078432;28;20058;-56
2020/12/07 06:09:07;;;;;;;7.35;6.22;;;;;;;19.58;33.21;94043.13;5096267;28;20051;-55
2020/12/07 06:11:40;;;;;;;8.00;7.10;;;;;;;18.98;34.14;94026.00;5096152;28;20048;-55
2020/12/07 06:14:07;;;;;;;8.27;7.28;;;;;;;19.21;33.73;94020.78;5086554;28;20050;-57
2020/12/07 06:16:37;;;;;;;8.68;7.03;;;;;;;18.97;34.36;94027.88;5095009;28;20047;-58
2020/12/07 06:19:15;;;;;;;8.77;6.90;;;;;;;19.61;32.73;94015.94;5096091;28;20043;-56
2020/12/07 06:21:53;;;;;;;7.43;6.30;;;;;;;19.63;32.74;94013.69;5095532;28;20032;-56
2020/12/07 06:24:20;;;;;;;6.90;5.93;;;;;;;19.33;33.57;94020.66;5095759;28;20065;-58
2020/12/07 06:27:04;;;;;;;6.95;6.25;;;;;;;19.49;33.21;94023.22;5095541;28;20478;-56
2020/12/07 06:29:31;;;;;;;8.05;6.78;;;;;;;18.93;34.26;94028.91;5112835;28;20047;-59
2020/12/07 06:31:59;;;;;;;8.60;6.88;;;;;;;19.00;34.18;94029.09;5115778;28;20378;-55
2020/12/07 06:34:39;;;;;;;6.93;6.13;;;;;;;19.84;32.53;94017.84;5115966;28;20465;-55
2020/12/07 06:37:15;;;;;;;7.72;6.55;;;;;;;19.08;33.98;94038.69;5115865;28;20054;-59
2020/12/07 06:39:44;;;;;;;7.82;6.68;;;;;;;19.49;33.12;94008.06;5116101;28;20058;-56
2020/12/07 06:42:12;;;;;;;6.95;6.00;;;;;;;20.26;31.72;94034.47;5116046;28;20039;-57
2020/12/07 06:44:44;;;;;;;7.88;6.20;;;;;;;19.89;32.34;94036.88;5095364;28;20048;-56
2020/12/07 06:47:19;;;;;;;8.18;6.85;;;;;;;18.92;34.22;94017.56;5095722;28;20054;-57
2020/12/07 06:49:53;;;;;;;9.68;7.30;;;;;;;18.91;34.50;94037.22;5073970;28;20052;-56
2020/12/07 06:52:23;;;;;;;9.52;7.68;;;;;;;19.46;33.59;94008.03;5075479;28;20138;-57
2020/12/07 06:57:49;;;;;;;8.32;7.35;;;;;;;18.95;34.45;94000.97;5095517;28;20043;-56
2020/12/07 07:00:26;;;;;;;9.40;7.72;;;;;;;18.59;34.91;94009.25;5095398;28;20055;-56
2020/12/07 07:02:55;;;;;;;9.82;7.70;;;;;;;18.37;35.50;93998.16;5095301;28;20358;-59
2020/12/07 07:05:27;;;;;;;8.27;7.13;;;;;;;18.72;34.74;93989.50;5090237;28;20055;-55
2020/12/07 07:07:55;;;;;;;7.38;6.68;;;;;;;18.68;34.77;94001.91;5095437;28;20106;-60
2020/12/07 07:10:22;;;;;;;9.45;7.28;;;;;;;19.00;33.90;93990.13;5095390;28;20059;-57
2020/12/07 07:12:50;;;;;;;8.65;7.40;;;;;;;18.53;35.14;93981.50;5094878;28;20481;-55
2020/12/07 07:15:17;;;;;;;8.43;7.47;;;;;;;19.69;32.83;93980.47;5094073;28;20366;-58
2020/12/07 07:17:45;;;;;;;8.10;7.05;;;;;;;19.18;33.59;93971.13;5095250;28;20048;-60
2020/12/07 07:20:15;;;;;;;8.02;7.15;;;;;;;19.02;34.27;93964.03;5095245;28;20450;-56
2020/12/07 07:22:45;;;;;;;9.05;7.10;;;;;;;18.83;34.21;93971.97;5094946;28;20047;-57
2020/12/07 07:30:23;;;;;;;8.32;7.38;;;;;;;20.57;31.26;93995.53;5086969;28;20052;-56
2020/12/07 07:32:51;;;;;;;7.28;6.25;;;;;;;20.43;31.43;94003.28;5074817;28;20395;-59
2020/12/07 07:35:21;;;;;;;9.43;7.22;;;;;;;19.69;32.27;93996.38;5081863;28;20047;-59
2020/12/07 07:37:48;;;;;;;8.75;7.82;;;;;;;20.32;31.38;93987.94;5095061;28;20055;-55
2020/12/07 07:40:19;;;;;;;9.10;6.53;;;;;;;21.02;30.01;93989.31;5095015;28;20055;-60
2020/12/07 07:42:54;;;;;;;8.27;6.90;;;;;;;20.08;31.71;93985.66;5095040;28;20051;-58
2020/12/07 07:45:24;;;;;;;8.30;6.93;;;;;;;20.16;31.45;93979.34;5107102;28;20437;-60
2020/12/07 07:54:10;;;;;;;9.25;8.05;;;;;;;19.24;33.38;93980.34;5098665;28;20044;-57
2020/12/07 07:59:58;;;;;;;8.27;6.50;;;;;;;19.45;32.45;94015.19;5099011;28;20047;-60
2020/12/07 08:15:59;;;;;;;7.32;6.30;;;;;;;20.86;30.40;93989.50;5099089;28;20044;-55
2020/12/07 08:18:30;;;;;;;9.38;6.88;;;;;;;20.51;31.06;94008.34;5098322;28;20051;-55
2020/12/07 08:21:01;;;;;;;10.23;7.70;;;;;;;19.88;32.36;94008.81;5098280;28;20040;-59
2020/12/07 08:23:30;;;;;;;8.18;6.75;;;;;;;20.10;31.86;93987.97;5098143;28;20052;-55
2020/12/07 08:25:59;;;;;;;9.75;7.97;;;;;;;19.40;33.37;94005.66;5097905;28;20059;-61
2020/12/07 08:28:39;;;;;;;8.88;7.75;;;;;;;19.34;33.38;93985.09;5098153;28;20055;-59
2020/12/07 08:31:12;;;;;;;9.27;7.78;;;;;;;19.21;33.68;94007.53;5097512;28;20051;-55
2020/12/07 08:33:58;;;;;;;8.45;7.18;;;;;;;19.06;33.93;93988.72;5095376;28;20347;-58
2020/12/07 08:36:26;;;;;;;11.10;7.95;;;;;;;19.24;33.69;94006.84;5098035;28;20047;-55
2020/12/07 08:38:53;;;;;;;9.02;8.02;;;;;;;20.08;32.28;93979.59;5097997;28;20040;-53
2020/12/07 08:41:24;;;;;;;8.23;7.18;;;;;;;19.42;33.15;93989.41;5081479;28;20040;-53
2020/12/07 08:43:56;;;;;;;9.02;7.60;;;;;;;20.13;31.93;94011.91;5092021;28;20351;-58
2020/12/07 08:46:26;;;;;;;7.68;6.95;;;;;;;19.07;33.57;93998.19;5118216;28;20074;-56
2020/12/07 08:48:54;;;;;;;8.57;7.68;;;;;;;18.81;33.97;94000.69;5092504;28;20052;-58
2020/12/07 08:51:24;;;;;;;7.97;6.65;;;;;;;20.22;31.63;93991.19;5097749;28;20052;-57
2020/12/07 08:53:52;;;;;;;8.75;7.10;;;;;;;20.19;31.47;93981.28;5097010;28;20385;-56
2020/12/07 08:56:19;;;;;;;8.18;7.00;;;;;;;19.58;32.62;93989.34;5079810;28;20044;-53
2020/12/07 08:58:46;;;;;;;8.05;6.50;;;;;;;19.89;31.93;93977.75;5097591;28;20048;-60
2020/12/07 09:01:13;;;;;;;7.63;6.82;;;;;;;19.83;32.14;93960.63;5097469;28;20060;-56
2020/12/07 09:03:42;;;;;;;7.60;6.80;;;;;;;19.68;32.24;93957.72;5090585;28;20048;-56
2020/12/07 09:06:12;;;;;;;8.27;6.75;;;;;;;19.24;33.36;93961.78;5077184;28;20458;-56
2020/12/07 09:08:40;;;;;;;7.15;5.78;;;;;;;19.75;32.17;93945.69;5077197;28;20474;-56
2020/12/07 09:11:09;;;;;;;6.35;5.65;;;;;;;20.49;30.61;93951.41;5077082;28;20059;-58
2020/12/07 09:13:36;;;;;;;6.63;5.95;;;;;;;20.25;31.27;93948.00;5086299;28;20375;-56
2020/12/07 09:16:04;;;;;;;66.05;42.80;;;;;;;19.53;32.45;93942.69;5117612;28;20039;-58
2020/12/07 09:18:31;;;;;;;14.05;11.55;;;;;;;20.37;31.55;93954.25;5117498;28;20051;-59
2020/12/07 09:20:58;;;;;;;7.65;6.53;;;;;;;20.33;31.22;93927.66;5117546;28;20066;-56
2020/12/07 09:23:26;;;;;;;8.65;6.70;;;;;;;20.16;31.48;93934.22;5109883;28;20059;-51
2020/12/07 09:25:53;;;;;;;8.38;7.20;;;;;;;20.85;30.37;93929.53;5097028;28;20493;-54
2020/12/07 09:28:21;;;;;;;6.43;5.72;;;;;;;20.94;29.37;93924.69;5095700;28;20044;-56
2020/12/07 09:30:48;;;;;;;7.55;6.72;;;;;;;19.76;31.99;93912.75;5076492;28;20386;-58
2020/12/07 09:33:15;;;;;;;8.32;7.05;;;;;;;20.28;30.90;93915.44;5081683;28;20431;-56
2020/12/07 09:35:42;;;;;;;8.63;6.28;;;;;;;20.07;31.19;93972.75;5096854;28;20044;-58
2020/12/07 09:38:10;;;;;;;9.07;5.90;;;;;;;21.58;28.73;93923.88;5096901;28;20044;-59
2020/12/07 09:40:37;;;;;;;8.25;7.18;;;;;;;19.68;32.10;93935.72;5076857;28;20048;-59
2020/12/07 09:43:05;;;;;;;7.60;6.80;;;;;;;19.74;32.33;93929.00;5079312;28;20052;-58
2020/12/07 09:45:32;;;;;;;7.93;6.75;;;;;;;20.52;31.28;93953.34;5113892;28;20477;-58
2020/12/07 09:48:00;;;;;;;7.38;6.60;;;;;;;19.93;31.55;93928.19;5116964;28;20043;-58
2020/12/07 09:50:28;;;;;;;7.72;6.55;;;;;;;19.84;31.54;93946.22;5116901;28;20044;-57
2020/12/07 09:52:55;;;;;;;8.32;6.80;;;;;;;20.62;29.90;93926.19;5114542;28;20044;-58
2020/12/07 09:55:23;;;;;;;6.88;5.88;;;;;;;20.04;30.99;93934.44;5096517;28;20036;-61
2020/12/07 09:57:50;;;;;;;6.53;5.82;;;;;;;19.64;31.41;93930.38;5096473;28;20584;-56
2020/12/07 10:00:17;;;;;;;6.32;5.72;;;;;;;20.37;29.86;93906.47;5096194;28;20066;-59
2020/12/07 10:02:45;;;;;;;7.65;6.55;;;;;;;18.92;32.76;93910.84;5094401;28;20060;-58
2020/12/07 10:05:12;;;;;;;8.35;6.82;;;;;;;19.07;32.63;93934.63;5075870;28;20044;-59
2020/12/07 10:07:39;;;;;;;7.35;6.63;;;;;;;19.33;32.31;93919.94;5075715;28;20045;-55
2020/12/07 10:10:06;;;;;;;7.45;6.68;;;;;;;19.52;32.10;93911.97;5075896;28;20059;-57
2020/12/07 10:12:34;;;;;;;6.47;5.82;;;;;;;19.32;32.41;93894.56;5076370;28;20051;-56
2020/12/07 10:15:02;;;;;;;8.32;6.80;;;;;;;19.59;31.90;93903.38;5108645;28;20477;-58
2020/12/07 10:17:30;;;;;;;7.03;6.32;;;;;;;19.75;31.56;93890.00;5116479;28;20043;-57
2020/12/07 10:19:57;;;;;;;7.97;7.18;;;;;;;19.21;32.49;93897.00;5116418;28;20451;-59
2020/12/07 10:22:24;;;;;;;6.85;6.00;;;;;;;19.82;31.46;93892.78;5116383;28;20359;-59
2020/12/07 10:24:51;;;;;;;9.48;5.82;;;;;;;19.53;31.70;93873.75;5095948;28;20051;-62
2020/12/07 10:27:18;;;;;;;6.18;5.65;;;;;;;19.52;31.72;93890.75;5096038;28;20048;-59
2020/12/07 10:29:45;;;;;;;7.22;5.70;;;;;;;19.13;32.48;93874.16;5095861;28;20051;-60
2020/12/07 10:32:12;;;;;;;7.30;6.25;;;;;;;20.03;30.99;93871.84;5095952;28;20051;-60
2020/12/07 10:34:39;;;;;;;7.78;5.72;;;;;;;19.45;31.64;93864.13;5095333;28;20768;-56
2020/12/07 10:37:07;;;;;;;6.15;5.20;;;;;;;19.53;31.78;93871.13;5095897;28;20044;-56
2020/12/07 10:39:34;;;;;;;6.47;5.78;;;;;;;19.33;32.04;93869.59;5095772;28;20055;-60
2020/12/07 10:42:02;;;;;;;4.65;4.22;;;;;;;19.94;30.65;93879.31;5095717;28;20051;-57
2020/12/07 10:44:29;;;;;;;6.53;5.72;;;;;;;19.69;31.22;93869.09;5102730;28;20043;-57
2020/12/07 10:46:56;;;;;;;5.45;4.75;;;;;;;19.49;31.53;93888.78;5115806;28;20054;-59
2020/12/07 10:49:23;;;;;;;5.65;5.15;;;;;;;19.91;31.04;93869.41;5097545;28;20059;-57
2020/12/07 10:51:50;;;;;;;6.30;5.70;;;;;;;19.45;31.58;93879.25;5095652;28;20063;-58
2020/12/07 10:54:17;;;;;;;6.80;6.10;;;;;;;20.16;30.31;93891.00;5095119;28;20078;-56
2020/12/07 10:56:47;;;;;;;7.50;6.70;;;;;;;20.16;30.49;93886.47;5095473;28;20366;-58
2020/12/07 10:59:14;;;;;;;8.35;7.20;;;;;;;20.16;30.83;93875.84;5077667;28;20082;-59
2020/12/07 11:01:41;;;;;;;8.25;6.97;;;;;;;20.18;30.59;93878.91;5095529;28;20074;-56
2020/12/07 11:04:08;;;;;;;10.98;7.90;;;;;;;19.85;31.25;93879.56;5095079;28;20056;-56
2020/12/07 11:06:42;;;;;;;11.80;9.73;;;;;;;19.73;31.66;93849.81;5095247;28;20063;-56
2020/12/07 11:09:11;;;;;;;9.82;8.68;;;;;;;19.84;31.45;93858.72;5095440;28;20040;-56
2020/12/07 11:11:38;;;;;;;10.38;8.82;;;;;;;19.76;31.57;93863.13;5095379;28;20048;-58
2020/12/07 11:14:05;;;;;;;8.57;7.63;;;;;;;20.14;30.85;93846.25;5094688;28;20051;-56
2020/12/07 11:16:32;;;;;;;10.00;8.75;;;;;;;20.39;30.34;93851.91;5095243;28;20044;-57
2020/12/07 11:18:59;;;;;;;9.18;8.27;;;;;;;19.15;32.54;93855.25;5099584;28;20044;-55
2020/12/07 11:21:26;;;;;;;8.80;7.70;;;;;;;20.16;31.70;93854.63;5088427;28;20044;-55
2020/12/07 11:23:54;;;;;;;9.70;8.20;;;;;;;19.53;32.30;93855.22;5088561;28;20059;-56
2020/12/07 11:26:21;;;;;;;9.57;8.57;;;;;;;18.87;33.55;93848.34;5099286;28;20387;-56
2020/12/07 11:28:48;;;;;;;9.02;8.00;;;;;;;19.33;32.71;93859.00;5099236;28;20052;-57
2020/12/07 11:31:17;;;;;;;10.07;8.80;;;;;;;19.20;33.17;93884.88;5099290;28;20055;-57
2020/12/07 11:33:44;;;;;;;9.75;8.18;;;;;;;19.03;33.47;93856.97;5098863;28;20051;-56
2020/12/07 11:36:13;;;;;;;10.02;8.63;;;;;;;18.90;33.41;93847.63;5099317;28;20055;-59
2020/12/07 11:46:52;;;;;;;10.38;9.07;;;;;;;18.92;33.24;93824.22;5098795;28;20052;-56
2020/12/07 11:49:20;;;;;;;8.43;7.60;;;;;;;19.33;32.61;93840.44;5099022;28;20328;-56
2020/12/07 11:51:47;;;;;;;8.75;7.53;;;;;;;18.69;33.74;93836.63;5098923;28;20062;-57
2020/12/07 11:54:14;;;;;;;11.07;8.88;;;;;;;18.78;33.75;93826.63;5098835;28;20059;-59
2020/12/07 11:56:41;;;;;;;9.82;8.82;;;;;;;18.72;33.62;93833.28;5099049;28;20040;-59
2020/12/07 11:59:09;;;;;;;10.07;8.77;;;;;;;18.68;34.12;93827.94;5098818;28;20417;-56
2020/12/07 12:01:37;;;;;;;11.65;9.65;;;;;;;18.53;34.47;93833.28;5098748;28;20063;-58
2020/12/07 12:04:07;;;;;;;11.80;9.98;;;;;;;19.17;33.81;93832.59;5098193;28;20048;-60
2020/12/07 12:06:37;;;;;;;11.90;10.55;;;;;;;18.76;34.18;93818.25;5098484;28;20056;-55
2020/12/07 12:09:06;;;;;;;10.00;9.00;;;;;;;18.71;34.27;93821.16;5098611;28;20048;-59
2020/12/07 12:11:35;;;;;;;11.48;9.25;;;;;;;18.48;34.63;93840.41;5094623;28;20055;-56
2020/12/07 12:14:04;;;;;;;11.40;9.95;;;;;;;18.32;34.98;93829.09;5088956;28;20051;-55
2020/12/07 12:16:32;;;;;;;10.77;9.60;;;;;;;18.59;34.45;93834.53;5098423;28;20044;-58
2020/12/07 12:19:00;;;;;;;10.60;9.50;;;;;;;18.33;34.72;93821.91;5098428;28;20078;-55